Hlavní strana
METAR-TAF:

METAR-TAF

Letiště :

Nuakšott, Mauritánie

zeměpisná šířka: 18-18-36N, zeměpisná délka: 015-58-11W, výška: 3 m

Aktuální stav počasí

Zpráva byla vytvořena před 30 minutami, v 18:30 UTC
Severoseverozápadní vítr 19 kt
Teplota 23°C
Vlhkost vzduchu 61%
Tlak 1011 hPa
Viditelnost: 7000 m

METAR: GQNO 231830Z 33019KT 7000 NSC 23/15 Q1011 NOSIG

Čas: 19:00 (19:00 UTC)

Předpověď počasí

Zpráva byla vytvořena před 2 hodinami a 0 minutami, v 17:00 UTC
Předpověď platná od 23 v 18 UTC do 24 v 24 UTC
Severoseverozápadní vítr 14 kt
Viditelnost: 7000 m
Dočasný
od 24 v 10 UTC do 24 v 14 UTC
Severovýchodní vítr 16 kt

TAF: GQNO 231700Z 2318/2424 34014KT 7000 NSC TEMPO 2410/2414 04016KT

Stav a předpovědi počasí z více než 4 000 letišť (zprávy METAR a TAF).

Červené a žluté tečky na mapě představují dostupné meteorologické stanice.

Když kurzor umístíte na tečku, zobrazí se název stanice.

Pak kliknutím zobrazíte stav a předpověď počasí.

Chcete-li změnit mapu, kliknutím na zelené tlačítko se znaménkem +mapu přiblížíte, kliknutím na zelené tlačítko se znaménkem – mapu oddálíte a kliknutím na zelené šipky přejdete na sousední mapy.


METAR-TAF: